In Rescue
 
Open Full Screen Window  High Contrast Mode
Wind Gusting 00 knots
03
September 18, 2020 11:30 PM EDT
Weather Information
Wind Direction
  010 °
Wind Speed
  03 kt (3 mph)
Wind Gust
  00 kt (0 mph)
Altimeter
30.40 in
Visibility
10 SM
Temperature
08° C
46° F
Dewpoint
00° C
32° F
Humidity
57%
Sky Condition
Clear
VFR

METAR KVLL 190330Z AUTO 01003KT 10SM CLR 08/00 A3040 RMK AO2 T00830004

FAA Disclaimer: The data displayed is for advisory purposes only and is not to be used for flight planning or operations.